sensor_id;sensor_type;location;lat;lon;timestamp;pressure;altitude;pressure_sealevel;temperature;humidity
11329;BME280;5719;42.714;23.732;2022-10-03T00:04:45;94472.50;;;9.95;100.00
11329;BME280;5719;42.714;23.732;2022-10-03T00:07:29;94474.19;;;9.96;100.00
11329;BME280;5719;42.714;23.732;2022-10-03T00:10:07;94469.53;;;9.88;100.00
11329;BME280;5719;42.714;23.732;2022-10-03T00:12:48;94470.06;;;9.80;100.00
11329;BME280;5719;42.714;23.732;2022-10-03T00:15:20;94465.34;;;9.74;100.00
11329;BME280;5719;42.714;23.732;2022-10-03T00:17:59;94462.13;;;9.71;100.00
11329;BME280;5719;42.714;23.732;2022-10-03T00:20:45;94456.59;;;9.64;100.00
11329;BME280;5719;42.714;23.732;2022-10-03T00:23:20;94448.31;;;9.59;100.00
11329;BME280;5719;42.714;23.732;2022-10-03T00:25:56;94440.09;;;9.54;100.00
11329;BME280;5719;42.714;23.732;2022-10-03T00:28:53;94434.69;;;9.57;100.00
11329;BME280;5719;42.714;23.732;2022-10-03T00:31:36;94437.50;;;9.54;100.00
11329;BME280;5719;42.714;23.732;2022-10-03T00:34:13;94429.25;;;9.49;100.00
11329;BME280;5719;42.714;23.732;2022-10-03T00:36:53;94428.09;;;9.41;100.00
11329;BME280;5719;42.714;23.732;2022-10-03T00:39:46;94414.28;;;9.42;100.00
11329;BME280;5719;42.714;23.732;2022-10-03T00:42:53;94419.88;;;9.35;100.00
11329;BME280;5719;42.714;23.732;2022-10-03T00:51:50;94406.75;;;9.26;100.00
11329;BME280;5719;42.714;23.732;2022-10-03T00:54:32;94412.13;;;9.23;100.00
11329;BME280;5719;42.714;23.732;2022-10-03T00:57:22;94408.91;;;9.19;100.00
11329;BME280;5719;42.714;23.732;2022-10-03T01:00:04;94400.66;;;8.89;100.00
11329;BME280;5719;42.714;23.732;2022-10-03T01:02:57;94392.41;;;8.84;100.00
11329;BME280;5719;42.714;23.732;2022-10-03T01:05:34;94405.50;;;8.94;100.00
11329;BME280;5719;42.714;23.732;2022-10-03T01:08:21;94400.34;;;8.94;100.00
11329;BME280;5719;42.714;23.732;2022-10-03T01:10:58;94385.28;;;9.00;100.00
11329;BME280;5719;42.714;23.732;2022-10-03T01:13:38;94385.91;;;9.04;100.00
11329;BME280;5719;42.714;23.732;2022-10-03T01:16:19;94385.81;;;9.05;100.00
11329;BME280;5719;42.714;23.732;2022-10-03T01:18:56;94387.47;;;9.06;100.00
11329;BME280;5719;42.714;23.732;2022-10-03T01:21:36;94377.78;;;9.10;100.00
11329;BME280;5719;42.714;23.732;2022-10-03T01:27:10;94375.28;;;9.08;100.00
11329;BME280;5719;42.714;23.732;2022-10-03T01:29:44;94378.00;;;9.07;100.00
11329;BME280;5719;42.714;23.732;2022-10-03T01:32:37;94369.13;;;8.98;100.00
11329;BME280;5719;42.714;23.732;2022-10-03T01:35:14;94363.34;;;8.95;100.00
11329;BME280;5719;42.714;23.732;2022-10-03T01:37:50;94361.91;;;8.91;100.00
11329;BME280;5719;42.714;23.732;2022-10-03T01:40:25;94368.28;;;8.98;100.00
11329;BME280;5719;42.714;23.732;2022-10-03T01:43:02;94357.66;;;9.02;100.00
11329;BME280;5719;42.714;23.732;2022-10-03T01:45:40;94358.06;;;9.09;100.00
11329;BME280;5719;42.714;23.732;2022-10-03T01:48:19;94364.88;;;9.10;100.00
11329;BME280;5719;42.714;23.732;2022-10-03T01:50:52;94364.28;;;9.06;100.00
11329;BME280;5719;42.714;23.732;2022-10-03T01:53:25;94370.16;;;8.96;100.00
11329;BME280;5719;42.714;23.732;2022-10-03T01:56:04;94367.47;;;8.84;100.00
11329;BME280;5719;42.714;23.732;2022-10-03T01:58:43;94369.31;;;8.95;100.00
11329;BME280;5719;42.714;23.732;2022-10-03T02:01:21;94366.84;;;8.94;100.00
11329;BME280;5719;42.714;23.732;2022-10-03T02:03:58;94354.47;;;8.86;100.00
11329;BME280;5719;42.714;23.732;2022-10-03T02:06:35;94370.75;;;8.86;100.00
11329;BME280;5719;42.714;23.732;2022-10-03T02:09:15;94371.47;;;8.76;100.00
11329;BME280;5719;42.714;23.732;2022-10-03T02:11:58;94364.28;;;8.81;100.00
11329;BME280;5719;42.714;23.732;2022-10-03T02:14:31;94358.50;;;8.77;100.00
11329;BME280;5719;42.714;23.732;2022-10-03T02:17:03;94365.00;;;8.70;100.00
11329;BME280;5719;42.714;23.732;2022-10-03T02:19:40;94358.59;;;8.76;100.00
11329;BME280;5719;42.714;23.732;2022-10-03T02:22:13;94360.13;;;8.78;100.00
11329;BME280;5719;42.714;23.732;2022-10-03T02:24:48;94359.22;;;8.79;100.00
11329;BME280;5719;42.714;23.732;2022-10-03T02:27:51;94359.00;;;8.82;100.00
11329;BME280;5719;42.714;23.732;2022-10-03T02:30:32;94355.72;;;8.80;100.00
11329;BME280;5719;42.714;23.732;2022-10-03T02:33:43;94360.03;;;8.80;100.00
11329;BME280;5719;42.714;23.732;2022-10-03T02:36:35;94358.38;;;8.79;100.00
11329;BME280;5719;42.714;23.732;2022-10-03T02:39:53;94365.41;;;8.77;100.00
11329;BME280;5719;42.714;23.732;2022-10-03T02:45:51;94361.69;;;8.68;100.00
11329;BME280;5719;42.714;23.732;2022-10-03T02:51:56;94347.47;;;8.63;100.00
11329;BME280;5719;42.714;23.732;2022-10-03T02:57:54;94356.09;;;8.62;100.00
11329;BME280;5719;42.714;23.732;2022-10-03T03:00:35;94346.84;;;8.59;100.00
11329;BME280;5719;42.714;23.732;2022-10-03T03:03:28;94346.41;;;8.53;100.00
11329;BME280;5719;42.714;23.732;2022-10-03T03:06:17;94348.34;;;8.49;100.00
11329;BME280;5719;42.714;23.732;2022-10-03T03:09:17;94345.78;;;8.49;100.00
11329;BME280;5719;42.714;23.732;2022-10-03T03:12:16;94341.56;;;8.48;100.00
11329;BME280;5719;42.714;23.732;2022-10-03T03:15:32;94340.69;;;8.35;100.00
11329;BME280;5719;42.714;23.732;2022-10-03T03:18:17;94346.19;;;8.30;100.00
11329;BME280;5719;42.714;23.732;2022-10-03T03:20:56;94344.31;;;8.32;100.00
11329;BME280;5719;42.714;23.732;2022-10-03T03:23:40;94349.56;;;8.31;100.00
11329;BME280;5719;42.714;23.732;2022-10-03T03:29:26;94344.25;;;8.20;100.00
11329;BME280;5719;42.714;23.732;2022-10-03T03:32:02;94346.19;;;8.16;100.00
11329;BME280;5719;42.714;23.732;2022-10-03T03:34:39;94345.56;;;8.13;100.00
11329;BME280;5719;42.714;23.732;2022-10-03T03:37:11;94340.03;;;8.19;100.00
11329;BME280;5719;42.714;23.732;2022-10-03T03:40:06;94349.22;;;8.23;100.00
11329;BME280;5719;42.714;23.732;2022-10-03T03:43:00;94332.56;;;8.28;100.00
11329;BME280;5719;42.714;23.732;2022-10-03T03:45:38;94322.88;;;8.32;100.00
11329;BME280;5719;42.714;23.732;2022-10-03T03:48:37;94331.97;;;8.38;100.00
11329;BME280;5719;42.714;23.732;2022-10-03T03:51:22;94333.50;;;8.40;100.00
11329;BME280;5719;42.714;23.732;2022-10-03T03:54:11;94332.59;;;8.41;100.00
11329;BME280;5719;42.714;23.732;2022-10-03T03:56:59;94337.63;;;8.43;100.00
11329;BME280;5719;42.714;23.732;2022-10-03T03:59:52;94331.56;;;8.44;100.00
11329;BME280;5719;42.714;23.732;2022-10-03T04:02:34;94328.16;;;8.43;100.00
11329;BME280;5719;42.714;23.732;2022-10-03T04:05:15;94330.72;;;8.43;100.00
11329;BME280;5719;42.714;23.732;2022-10-03T04:07:58;94331.84;;;8.39;100.00
11329;BME280;5719;42.714;23.732;2022-10-03T04:10:35;94330.94;;;8.40;100.00
11329;BME280;5719;42.714;23.732;2022-10-03T04:13:24;94329.47;;;8.36;100.00
11329;BME280;5719;42.714;23.732;2022-10-03T04:16:08;94332.34;;;8.31;100.00
11329;BME280;5719;42.714;23.732;2022-10-03T04:18:51;94335.88;;;8.30;100.00
11329;BME280;5719;42.714;23.732;2022-10-03T04:24:39;94340.00;;;8.33;100.00
11329;BME280;5719;42.714;23.732;2022-10-03T04:27:25;94334.84;;;8.33;100.00
11329;BME280;5719;42.714;23.732;2022-10-03T04:30:04;94335.19;;;8.27;100.00
11329;BME280;5719;42.714;23.732;2022-10-03T04:32:52;94329.91;;;8.30;100.00
11329;BME280;5719;42.714;23.732;2022-10-03T04:35:47;94319.31;;;8.20;100.00
11329;BME280;5719;42.714;23.732;2022-10-03T04:38:27;94326.41;;;8.04;100.00
11329;BME280;5719;42.714;23.732;2022-10-03T04:41:15;94331.13;;;7.98;100.00
11329;BME280;5719;42.714;23.732;2022-10-03T04:43:51;94324.69;;;7.90;100.00
11329;BME280;5719;42.714;23.732;2022-10-03T04:46:27;94313.59;;;7.90;100.00
11329;BME280;5719;42.714;23.732;2022-10-03T04:49:03;94314.84;;;7.97;100.00
11329;BME280;5719;42.714;23.732;2022-10-03T04:51:45;94321.69;;;7.84;100.00
11329;BME280;5719;42.714;23.732;2022-10-03T04:54:22;94320.84;;;7.83;100.00
11329;BME280;5719;42.714;23.732;2022-10-03T04:57:00;94321.41;;;7.88;100.00
11329;BME280;5719;42.714;23.732;2022-10-03T04:59:46;94326.63;;;7.87;100.00
11329;BME280;5719;42.714;23.732;2022-10-03T05:02:29;94318.50;;;7.80;100.00
11329;BME280;5719;42.714;23.732;2022-10-03T05:05:24;94321.06;;;7.80;100.00
11329;BME280;5719;42.714;23.732;2022-10-03T05:07:59;94316.25;;;7.88;100.00
11329;BME280;5719;42.714;23.732;2022-10-03T05:10:54;94318.25;;;7.98;100.00
11329;BME280;5719;42.714;23.732;2022-10-03T05:13:33;94316.41;;;8.00;100.00
11329;BME280;5719;42.714;23.732;2022-10-03T05:16:08;94317.94;;;8.02;100.00
11329;BME280;5719;42.714;23.732;2022-10-03T05:18:46;94314.88;;;8.10;100.00
11329;BME280;5719;42.714;23.732;2022-10-03T05:21:30;94319.31;;;8.20;100.00
11329;BME280;5719;42.714;23.732;2022-10-03T05:24:03;94316.06;;;8.31;100.00
11329;BME280;5719;42.714;23.732;2022-10-03T05:26:39;94318.16;;;8.38;100.00
11329;BME280;5719;42.714;23.732;2022-10-03T05:29:15;94323.31;;;8.51;100.00
11329;BME280;5719;42.714;23.732;2022-10-03T05:31:49;94312.41;;;8.60;100.00
11329;BME280;5719;42.714;23.732;2022-10-03T05:34:31;94312.91;;;8.65;100.00
11329;BME280;5719;42.714;23.732;2022-10-03T05:37:25;94319.31;;;8.72;100.00
11329;BME280;5719;42.714;23.732;2022-10-03T05:39:57;94310.53;;;8.75;100.00
11329;BME280;5719;42.714;23.732;2022-10-03T05:42:40;94306.94;;;8.77;100.00
11329;BME280;5719;42.714;23.732;2022-10-03T05:45:23;94309.81;;;8.85;100.00
11329;BME280;5719;42.714;23.732;2022-10-03T05:48:08;94315.69;;;8.88;100.00
11329;BME280;5719;42.714;23.732;2022-10-03T05:50:58;94305.19;;;8.91;100.00
11329;BME280;5719;42.714;23.732;2022-10-03T05:53:56;94291.78;;;8.98;100.00
11329;BME280;5719;42.714;23.732;2022-10-03T05:56:49;94289.97;;;9.11;100.00
11329;BME280;5719;42.714;23.732;2022-10-03T06:00:00;94286.16;;;9.17;100.00
11329;BME280;5719;42.714;23.732;2022-10-03T06:02:59;94297.50;;;9.27;100.00
11329;BME280;5719;42.714;23.732;2022-10-03T06:05:33;94302.66;;;9.27;100.00
11329;BME280;5719;42.714;23.732;2022-10-03T06:14:19;94314.16;;;9.47;100.00
11329;BME280;5719;42.714;23.732;2022-10-03T06:16:58;94305.44;;;9.60;100.00
11329;BME280;5719;42.714;23.732;2022-10-03T06:19:44;94309.06;;;9.81;100.00
11329;BME280;5719;42.714;23.732;2022-10-03T06:33:03;94320.91;;;10.55;100.00
11329;BME280;5719;42.714;23.732;2022-10-03T06:45:34;94312.25;;;11.01;100.00
11329;BME280;5719;42.714;23.732;2022-10-03T06:48:29;94325.56;;;11.07;100.00
11329;BME280;5719;42.714;23.732;2022-10-03T06:51:33;94332.97;;;11.23;100.00
11329;BME280;5719;42.714;23.732;2022-10-03T06:57:26;94312.91;;;11.80;100.00
11329;BME280;5719;42.714;23.732;2022-10-03T07:00:12;94322.31;;;11.93;100.00
11329;BME280;5719;42.714;23.732;2022-10-03T07:03:17;94328.75;;;12.09;100.00
11329;BME280;5719;42.714;23.732;2022-10-03T07:06:10;94335.22;;;12.15;100.00
11329;BME280;5719;42.714;23.732;2022-10-03T07:09:14;94340.59;;;12.23;100.00
11329;BME280;5719;42.714;23.732;2022-10-03T07:12:15;94339.84;;;12.32;100.00
11329;BME280;5719;42.714;23.732;2022-10-03T07:15:13;94350.22;;;12.32;100.00
11329;BME280;5719;42.714;23.732;2022-10-03T07:18:10;94357.06;;;12.33;100.00
11329;BME280;5719;42.714;23.732;2022-10-03T07:21:20;94367.16;;;12.36;100.00
11329;BME280;5719;42.714;23.732;2022-10-03T07:24:01;94365.66;;;12.34;100.00
11329;BME280;5719;42.714;23.732;2022-10-03T07:26:55;94375.09;;;12.35;100.00
11329;BME280;5719;42.714;23.732;2022-10-03T07:29:49;94381.97;;;12.13;100.00
11329;BME280;5719;42.714;23.732;2022-10-03T07:32:43;94376.34;;;12.08;100.00
11329;BME280;5719;42.714;23.732;2022-10-03T07:35:41;94387.56;;;11.98;100.00
11329;BME280;5719;42.714;23.732;2022-10-03T07:41:37;94388.75;;;11.71;100.00
11329;BME280;5719;42.714;23.732;2022-10-03T07:44:43;94396.16;;;11.65;100.00
11329;BME280;5719;42.714;23.732;2022-10-03T07:47:43;94383.56;;;11.60;100.00
11329;BME280;5719;42.714;23.732;2022-10-03T07:50:49;94384.13;;;11.64;100.00
11329;BME280;5719;42.714;23.732;2022-10-03T07:56:53;94382.25;;;11.77;100.00
11329;BME280;5719;42.714;23.732;2022-10-03T08:02:41;94384.50;;;11.93;100.00
11329;BME280;5719;42.714;23.732;2022-10-03T08:05:26;94381.22;;;11.91;100.00
11329;BME280;5719;42.714;23.732;2022-10-03T08:08:17;94389.56;;;11.83;100.00
11329;BME280;5719;42.714;23.732;2022-10-03T08:11:11;94394.59;;;11.51;100.00
11329;BME280;5719;42.714;23.732;2022-10-03T08:13:58;94412.50;;;11.32;100.00
11329;BME280;5719;42.714;23.732;2022-10-03T08:16:45;94416.50;;;11.36;100.00
11329;BME280;5719;42.714;23.732;2022-10-03T08:19:35;94418.25;;;11.36;100.00
11329;BME280;5719;42.714;23.732;2022-10-03T08:22:12;94422.97;;;11.42;100.00
11329;BME280;5719;42.714;23.732;2022-10-03T08:25:26;94419.56;;;11.52;100.00
11329;BME280;5719;42.714;23.732;2022-10-03T08:28:25;94422.75;;;11.56;100.00
11329;BME280;5719;42.714;23.732;2022-10-03T08:34:16;94436.50;;;11.45;100.00
11329;BME280;5719;42.714;23.732;2022-10-03T08:39:53;94432.94;;;11.24;100.00
11329;BME280;5719;42.714;23.732;2022-10-03T08:42:46;94437.41;;;11.11;100.00
11329;BME280;5719;42.714;23.732;2022-10-03T08:45:44;94434.28;;;10.95;100.00
11329;BME280;5719;42.714;23.732;2022-10-03T08:48:39;94436.50;;;10.88;100.00
11329;BME280;5719;42.714;23.732;2022-10-03T08:51:46;94435.94;;;10.96;100.00
11329;BME280;5719;42.714;23.732;2022-10-03T08:54:38;94429.50;;;11.12;100.00
11329;BME280;5719;42.714;23.732;2022-10-03T08:57:24;94439.22;;;11.32;100.00
11329;BME280;5719;42.714;23.732;2022-10-03T09:00:12;94439.31;;;11.31;100.00
11329;BME280;5719;42.714;23.732;2022-10-03T09:03:15;94440.03;;;11.22;100.00
11329;BME280;5719;42.714;23.732;2022-10-03T09:12:27;94439.22;;;11.32;100.00
11329;BME280;5719;42.714;23.732;2022-10-03T09:15:10;94436.03;;;11.51;100.00
11329;BME280;5719;42.714;23.732;2022-10-03T09:21:11;94435.34;;;11.60;100.00
11329;BME280;5719;42.714;23.732;2022-10-03T09:24:02;94435.38;;;11.83;100.00
11329;BME280;5719;42.714;23.732;2022-10-03T09:29:48;94425.94;;;11.82;100.00
11329;BME280;5719;42.714;23.732;2022-10-03T09:32:47;94419.34;;;12.00;100.00
11329;BME280;5719;42.714;23.732;2022-10-03T09:35:47;94421.03;;;12.33;100.00
11329;BME280;5719;42.714;23.732;2022-10-03T09:41:50;94424.97;;;12.79;100.00
11329;BME280;5719;42.714;23.732;2022-10-03T09:48:01;94424.25;;;12.89;100.00
11329;BME280;5719;42.714;23.732;2022-10-03T09:59:59;94411.34;;;12.98;100.00
11329;BME280;5719;42.714;23.732;2022-10-03T10:20:44;94372.03;;;14.82;100.00
11329;BME280;5719;42.714;23.732;2022-10-03T10:23:32;94377.75;;;15.14;100.00
11329;BME280;5719;42.714;23.732;2022-10-03T10:29:34;94392.78;;;15.86;100.00
11329;BME280;5719;42.714;23.732;2022-10-03T10:38:39;94378.78;;;15.50;100.00
11329;BME280;5719;42.714;23.732;2022-10-03T10:41:54;94374.69;;;15.28;100.00
11329;BME280;5719;42.714;23.732;2022-10-03T10:54:21;94390.06;;;15.12;100.00
11329;BME280;5719;42.714;23.732;2022-10-03T10:57:16;94384.06;;;15.11;100.00
11329;BME280;5719;42.714;23.732;2022-10-03T11:00:16;94382.13;;;15.13;100.00
11329;BME280;5719;42.714;23.732;2022-10-03T11:37:31;94376.53;;;15.18;100.00
11329;BME280;5719;42.714;23.732;2022-10-03T11:40:13;94363.03;;;15.51;97.49
11329;BME280;5719;42.714;23.732;2022-10-03T11:42:52;94372.28;;;15.63;97.97
11329;BME280;5719;42.714;23.732;2022-10-03T11:45:25;94376.78;;;15.71;97.83
11329;BME280;5719;42.714;23.732;2022-10-03T11:47:56;94371.56;;;15.81;98.77
11329;BME280;5719;42.714;23.732;2022-10-03T11:50:41;94371.09;;;15.58;95.55
11329;BME280;5719;42.714;23.732;2022-10-03T11:53:33;94368.06;;;15.53;96.03
11329;BME280;5719;42.714;23.732;2022-10-03T11:59:05;94365.31;;;15.45;96.50
11329;BME280;5719;42.714;23.732;2022-10-03T12:01:49;94359.00;;;15.57;93.50
11329;BME280;5719;42.714;23.732;2022-10-03T12:04:27;94355.03;;;15.90;92.27
11329;BME280;5719;42.714;23.732;2022-10-03T12:06:59;94362.47;;;16.30;86.36
11329;BME280;5719;42.714;23.732;2022-10-03T12:09:58;94352.78;;;16.40;81.93
11329;BME280;5719;42.714;23.732;2022-10-03T12:12:36;94348.56;;;16.21;83.69
11329;BME280;5719;42.714;23.732;2022-10-03T12:15:25;94342.50;;;16.21;85.00
11329;BME280;5719;42.714;23.732;2022-10-03T12:18:03;94322.31;;;16.23;81.51
11329;BME280;5719;42.714;23.732;2022-10-03T12:20:38;94332.97;;;16.47;82.30
11329;BME280;5719;42.714;23.732;2022-10-03T12:23:21;94322.28;;;16.67;79.50
11329;BME280;5719;42.714;23.732;2022-10-03T12:25:55;94323.84;;;16.60;77.25
11329;BME280;5719;42.714;23.732;2022-10-03T12:28:26;94319.25;;;16.80;78.62
11329;BME280;5719;42.714;23.732;2022-10-03T12:30:59;94311.31;;;17.33;73.95
11329;BME280;5719;42.714;23.732;2022-10-03T12:34:00;94318.94;;;16.83;73.20
11329;BME280;5719;42.714;23.732;2022-10-03T12:36:42;94314.31;;;17.21;73.55
11329;BME280;5719;42.714;23.732;2022-10-03T12:39:29;94323.78;;;17.47;69.63
11329;BME280;5719;42.714;23.732;2022-10-03T12:42:14;94317.09;;;17.79;68.53
11329;BME280;5719;42.714;23.732;2022-10-03T12:44:50;94330.97;;;18.13;67.48
11329;BME280;5719;42.714;23.732;2022-10-03T12:47:27;94293.72;;;17.77;65.18
11329;BME280;5719;42.714;23.732;2022-10-03T12:50:03;94322.78;;;17.14;68.10
11329;BME280;5719;42.714;23.732;2022-10-03T12:52:38;94328.44;;;16.49;72.24
11329;BME280;5719;42.714;23.732;2022-10-03T12:55:22;94336.28;;;16.04;73.77
11329;BME280;5719;42.714;23.732;2022-10-03T12:57:54;94342.91;;;15.98;74.90
11329;BME280;5719;42.714;23.732;2022-10-03T13:00:31;94331.34;;;15.83;75.06
11329;BME280;5719;42.714;23.732;2022-10-03T13:03:20;94340.53;;;15.78;77.12
11329;BME280;5719;42.714;23.732;2022-10-03T13:06:12;94328.13;;;15.89;75.82
11329;BME280;5719;42.714;23.732;2022-10-03T13:08:53;94333.84;;;16.02;75.51
11329;BME280;5719;42.714;23.732;2022-10-03T13:11:31;94325.03;;;16.03;74.59
11329;BME280;5719;42.714;23.732;2022-10-03T13:14:09;94329.16;;;16.06;75.22
11329;BME280;5719;42.714;23.732;2022-10-03T13:16:51;94326.34;;;16.17;74.92
11329;BME280;5719;42.714;23.732;2022-10-03T13:19:22;94331.47;;;16.09;73.95
11329;BME280;5719;42.714;23.732;2022-10-03T13:22:01;94327.13;;;16.17;72.22
11329;BME280;5719;42.714;23.732;2022-10-03T13:24:35;94319.78;;;16.48;73.10
11329;BME280;5719;42.714;23.732;2022-10-03T13:27:09;94321.03;;;16.80;69.76
11329;BME280;5719;42.714;23.732;2022-10-03T13:29:43;94332.09;;;17.17;68.52
11329;BME280;5719;42.714;23.732;2022-10-03T13:32:16;94323.94;;;17.46;68.66
11329;BME280;5719;42.714;23.732;2022-10-03T13:34:58;94327.81;;;17.59;63.95
11329;BME280;5719;42.714;23.732;2022-10-03T13:38:15;94337.97;;;17.62;65.20
11329;BME280;5719;42.714;23.732;2022-10-03T13:40:47;94333.94;;;17.50;63.95
11329;BME280;5719;42.714;23.732;2022-10-03T13:43:21;94326.03;;;17.68;63.82
11329;BME280;5719;42.714;23.732;2022-10-03T13:45:51;94326.31;;;17.91;63.20
11329;BME280;5719;42.714;23.732;2022-10-03T13:48:25;94326.31;;;17.57;62.86
11329;BME280;5719;42.714;23.732;2022-10-03T13:50:56;94324.81;;;17.29;64.50
11329;BME280;5719;42.714;23.732;2022-10-03T13:53:45;94319.78;;;17.09;67.72
11329;BME280;5719;42.714;23.732;2022-10-03T13:56:26;94323.16;;;17.02;66.32
11329;BME280;5719;42.714;23.732;2022-10-03T13:59:02;94333.41;;;16.95;66.36
11329;BME280;5719;42.714;23.732;2022-10-03T14:01:45;94338.00;;;16.76;66.65
11329;BME280;5719;42.714;23.732;2022-10-03T14:04:30;94330.81;;;16.42;69.55
11329;BME280;5719;42.714;23.732;2022-10-03T14:07:09;94323.44;;;16.38;70.28
11329;BME280;5719;42.714;23.732;2022-10-03T14:09:55;94327.09;;;16.62;68.73
11329;BME280;5719;42.714;23.732;2022-10-03T14:12:31;94320.53;;;16.94;66.28
11329;BME280;5719;42.714;23.732;2022-10-03T14:15:14;94335.25;;;17.03;67.11
11329;BME280;5719;42.714;23.732;2022-10-03T14:17:49;94329.94;;;17.38;65.42
11329;BME280;5719;42.714;23.732;2022-10-03T14:20:25;94332.91;;;17.69;63.95
11329;BME280;5719;42.714;23.732;2022-10-03T14:23:07;94337.13;;;17.96;63.97
11329;BME280;5719;42.714;23.732;2022-10-03T14:25:40;94351.22;;;18.11;63.53
11329;BME280;5719;42.714;23.732;2022-10-03T14:28:15;94355.75;;;18.01;60.72
11329;BME280;5719;42.714;23.732;2022-10-03T14:30:54;94351.75;;;18.23;60.66
11329;BME280;5719;42.714;23.732;2022-10-03T14:33:27;94356.53;;;18.35;60.27
11329;BME280;5719;42.714;23.732;2022-10-03T14:36:12;94351.03;;;18.54;58.82
11329;BME280;5719;42.714;23.732;2022-10-03T14:38:58;94353.19;;;18.75;57.21
11329;BME280;5719;42.714;23.732;2022-10-03T14:41:48;94349.69;;;18.50;55.62
11329;BME280;5719;42.714;23.732;2022-10-03T14:44:33;94352.47;;;18.49;56.25
11329;BME280;5719;42.714;23.732;2022-10-03T14:47:07;94352.91;;;18.20;55.48
11329;BME280;5719;42.714;23.732;2022-10-03T14:49:37;94356.03;;;17.90;56.40
11329;BME280;5719;42.714;23.732;2022-10-03T14:52:23;94355.03;;;17.83;55.77
11329;BME280;5719;42.714;23.732;2022-10-03T14:54:53;94352.59;;;17.55;57.14
11329;BME280;5719;42.714;23.732;2022-10-03T14:57:30;94355.88;;;17.57;58.51
11329;BME280;5719;42.714;23.732;2022-10-03T14:59:58;94348.34;;;17.54;58.86
11329;BME280;5719;42.714;23.732;2022-10-03T15:02:29;94347.59;;;17.62;58.70
11329;BME280;5719;42.714;23.732;2022-10-03T15:05:02;94355.41;;;17.36;59.29
11329;BME280;5719;42.714;23.732;2022-10-03T15:07:34;94359.09;;;17.00;60.58
11329;BME280;5719;42.714;23.732;2022-10-03T15:10:07;94359.00;;;16.92;62.57
11329;BME280;5719;42.714;23.732;2022-10-03T15:12:37;94359.44;;;16.87;62.65
11329;BME280;5719;42.714;23.732;2022-10-03T15:15:09;94356.56;;;16.73;63.70
11329;BME280;5719;42.714;23.732;2022-10-03T15:17:43;94361.66;;;16.56;64.98
11329;BME280;5719;42.714;23.732;2022-10-03T15:20:12;94364.09;;;16.58;65.10
11329;BME280;5719;42.714;23.732;2022-10-03T15:22:50;94368.59;;;16.21;65.64
11329;BME280;5719;42.714;23.732;2022-10-03T15:25:20;94353.03;;;15.74;66.40
11329;BME280;5719;42.714;23.732;2022-10-03T15:27:52;94354.09;;;15.54;67.36
11329;BME280;5719;42.714;23.732;2022-10-03T15:30:21;94344.22;;;15.48;67.16
11329;BME280;5719;42.714;23.732;2022-10-03T15:32:51;94356.34;;;15.30;68.42
11329;BME280;5719;42.714;23.732;2022-10-03T15:35:25;94359.13;;;15.18;68.65
11329;BME280;5719;42.714;23.732;2022-10-03T15:37:59;94365.16;;;15.09;70.62
11329;BME280;5719;42.714;23.732;2022-10-03T15:40:34;94371.75;;;15.04;69.35
11329;BME280;5719;42.714;23.732;2022-10-03T15:43:05;94381.31;;;15.13;70.21
11329;BME280;5719;42.714;23.732;2022-10-03T15:45:34;94381.31;;;15.23;70.71
11329;BME280;5719;42.714;23.732;2022-10-03T15:48:04;94381.31;;;15.13;71.27
11329;BME280;5719;42.714;23.732;2022-10-03T15:50:35;94380.00;;;14.90;71.43
11329;BME280;5719;42.714;23.732;2022-10-03T15:53:08;94389.03;;;14.57;72.61
11329;BME280;5719;42.714;23.732;2022-10-03T15:55:41;94400.50;;;14.35;73.51
11329;BME280;5719;42.714;23.732;2022-10-03T15:58:15;94396.56;;;14.10;74.53
11329;BME280;5719;42.714;23.732;2022-10-03T16:00:47;94397.84;;;13.76;76.66
11329;BME280;5719;42.714;23.732;2022-10-03T16:03:24;94406.94;;;13.61;78.17
11329;BME280;5719;42.714;23.732;2022-10-03T16:06:01;94405.19;;;13.41;79.88
11329;BME280;5719;42.714;23.732;2022-10-03T16:08:31;94414.59;;;13.32;80.99
11329;BME280;5719;42.714;23.732;2022-10-03T16:11:07;94430.91;;;13.23;82.20
11329;BME280;5719;42.714;23.732;2022-10-03T16:13:39;94429.00;;;13.04;83.88
11329;BME280;5719;42.714;23.732;2022-10-03T16:16:12;94429.88;;;12.94;85.06
11329;BME280;5719;42.714;23.732;2022-10-03T16:18:53;94429.75;;;12.74;87.33
11329;BME280;5719;42.714;23.732;2022-10-03T16:21:30;94429.78;;;12.63;88.73
11329;BME280;5719;42.714;23.732;2022-10-03T16:24:01;94430.66;;;12.53;90.63
11329;BME280;5719;42.714;23.732;2022-10-03T16:26:33;94444.31;;;12.55;91.56
11329;BME280;5719;42.714;23.732;2022-10-03T16:29:07;94441.97;;;12.52;92.79
11329;BME280;5719;42.714;23.732;2022-10-03T16:31:40;94441.25;;;12.50;93.45
11329;BME280;5719;42.714;23.732;2022-10-03T16:34:13;94437.03;;;12.49;94.62
11329;BME280;5719;42.714;23.732;2022-10-03T16:36:42;94449.41;;;12.45;95.37
11329;BME280;5719;42.714;23.732;2022-10-03T16:39:18;94456.78;;;12.50;95.69
11329;BME280;5719;42.714;23.732;2022-10-03T16:41:49;94457.53;;;12.52;95.98
11329;BME280;5719;42.714;23.732;2022-10-03T16:44:22;94466.94;;;12.53;95.92
11329;BME280;5719;42.714;23.732;2022-10-03T16:46:52;94461.41;;;12.46;95.46
11329;BME280;5719;42.714;23.732;2022-10-03T16:49:35;94464.00;;;12.46;96.54
11329;BME280;5719;42.714;23.732;2022-10-03T16:52:23;94476.50;;;12.52;96.37
11329;BME280;5719;42.714;23.732;2022-10-03T16:55:00;94480.34;;;12.58;96.07
11329;BME280;5719;42.714;23.732;2022-10-03T16:57:34;94476.94;;;12.57;96.05
11329;BME280;5719;42.714;23.732;2022-10-03T17:00:04;94480.72;;;12.53;96.06
11329;BME280;5719;42.714;23.732;2022-10-03T17:02:39;94478.38;;;12.50;96.47
11329;BME280;5719;42.714;23.732;2022-10-03T17:05:10;94476.25;;;12.55;96.28
11329;BME280;5719;42.714;23.732;2022-10-03T17:07:39;94480.81;;;12.63;95.35
11329;BME280;5719;42.714;23.732;2022-10-03T17:10:34;94484.50;;;12.60;95.10
11329;BME280;5719;42.714;23.732;2022-10-03T17:13:02;94483.53;;;12.61;94.99
11329;BME280;5719;42.714;23.732;2022-10-03T17:15:39;94479.91;;;12.53;95.23